createdAt,value
2018-04-10T00:00:15.468Z,19.70
2018-04-10T00:02:43.722Z,19.70
2018-04-10T00:05:11.979Z,19.30
2018-04-10T00:07:41.000Z,19.70
2018-04-10T00:10:09.845Z,19.50
2018-04-10T00:12:38.087Z,19.40
2018-04-10T00:15:06.416Z,19.10
2018-04-10T00:17:34.650Z,19.40
2018-04-10T00:20:02.929Z,19.30
2018-04-10T00:22:31.175Z,19.50
2018-04-10T00:24:59.431Z,19.30
2018-04-10T00:27:27.691Z,19.40
2018-04-10T00:29:55.984Z,19.30
2018-04-10T00:32:24.264Z,19.30
2018-04-10T00:34:52.558Z,19.40
2018-04-10T00:37:21.694Z,19.50
2018-04-10T00:39:50.799Z,19.30
2018-04-10T00:42:19.084Z,19.70
2018-04-10T00:44:47.427Z,19.40
2018-04-10T00:47:16.007Z,19.10
2018-04-10T00:49:44.266Z,19.40
2018-04-10T00:52:12.569Z,19.40
2018-04-10T00:54:41.595Z,19.40
2018-04-10T00:57:10.671Z,19.30
2018-04-10T00:59:38.946Z,19.60
2018-04-10T01:02:07.223Z,19.30
2018-04-10T01:04:36.296Z,19.30
2018-04-10T01:07:04.559Z,19.30
2018-04-10T01:09:33.009Z,19.50
2018-04-10T01:12:02.687Z,19.10
2018-04-10T01:14:30.987Z,19.30
2018-04-10T01:16:59.248Z,19.40
2018-04-10T01:19:27.544Z,19.20
2018-04-10T01:21:55.843Z,19.10
2018-04-10T01:24:24.154Z,19.10
2018-04-10T01:26:52.428Z,19.30
2018-04-10T01:29:20.699Z,19.20
2018-04-10T01:31:48.964Z,19.30
2018-04-10T01:34:18.089Z,19.20
2018-04-10T01:36:46.375Z,19.20
2018-04-10T01:39:14.613Z,19.10
2018-04-10T01:41:42.876Z,19.20
2018-04-10T01:44:11.130Z,19.30
2018-04-10T01:46:39.391Z,19.20
2018-04-10T01:49:07.662Z,19.40
2018-04-10T01:51:36.164Z,19.20
2018-04-10T01:54:04.407Z,19.10
2018-04-10T01:56:33.477Z,19.40
2018-04-10T01:59:01.743Z,19.10
2018-04-10T02:01:30.034Z,19.40
2018-04-10T02:03:59.037Z,19.20
2018-04-10T02:06:27.281Z,19.30
2018-04-10T02:08:55.543Z,19.30
2018-04-10T02:11:23.795Z,19.10
2018-04-10T02:13:52.177Z,19.20
2018-04-10T02:16:20.403Z,19.10
2018-04-10T02:18:49.436Z,19.10
2018-04-10T02:21:18.402Z,18.90
2018-04-10T02:23:46.743Z,19.00
2018-04-10T02:26:15.033Z,19.20
2018-04-10T02:28:44.292Z,18.70
2018-04-10T02:31:12.596Z,19.00
2018-04-10T02:33:42.339Z,18.80
2018-04-10T02:36:10.603Z,18.50
2018-04-10T02:38:39.739Z,18.70
2018-04-10T02:41:08.094Z,18.40
2018-04-10T02:43:37.684Z,18.50
2018-04-10T02:46:06.068Z,18.80
2018-04-10T02:48:34.383Z,18.70
2018-04-10T02:51:02.653Z,18.80
2018-04-10T02:53:30.942Z,18.60
2018-04-10T02:55:59.222Z,18.50
2018-04-10T02:58:29.570Z,18.80
2018-04-10T03:00:57.870Z,18.60
2018-04-10T03:03:26.205Z,18.80
2018-04-10T03:05:55.252Z,18.80
2018-04-10T03:08:23.562Z,19.00
2018-04-10T03:10:51.804Z,18.70
2018-04-10T03:13:20.056Z,18.50
2018-04-10T03:15:48.340Z,18.80
2018-04-10T03:18:16.612Z,18.70
2018-04-10T03:20:44.992Z,18.60
2018-04-10T03:23:13.215Z,18.60
2018-04-10T03:25:41.525Z,18.80
2018-04-10T03:28:11.451Z,18.60
2018-04-10T03:30:39.712Z,18.70
2018-04-10T03:33:08.014Z,18.60
2018-04-10T03:35:36.245Z,18.60
2018-04-10T03:38:04.567Z,18.70
2018-04-10T03:40:32.833Z,18.60
2018-04-10T03:43:01.129Z,18.60
2018-04-10T03:45:30.155Z,18.60
2018-04-10T03:47:59.279Z,18.30
2018-04-10T03:50:27.985Z,18.60
2018-04-10T03:52:56.269Z,18.70
2018-04-10T03:55:24.540Z,18.60
2018-04-10T03:57:52.807Z,18.70
2018-04-10T04:00:21.061Z,18.40
2018-04-10T04:02:50.093Z,18.40
2018-04-10T04:05:18.351Z,18.60
2018-04-10T04:07:47.365Z,18.60
2018-04-10T04:10:15.620Z,18.30
2018-04-10T04:12:44.691Z,18.20
2018-04-10T04:15:13.399Z,18.50
2018-04-10T04:17:42.471Z,18.50
2018-04-10T04:20:22.728Z,18.20
2018-04-10T04:22:50.983Z,18.30
2018-04-10T04:25:19.255Z,18.10
2018-04-10T04:27:47.538Z,18.30
2018-04-10T04:30:15.857Z,18.30
2018-04-10T04:32:44.073Z,18.20
2018-04-10T04:35:12.380Z,18.50
2018-04-10T04:37:41.652Z,18.40
2018-04-10T04:40:11.264Z,18.40
2018-04-10T04:42:39.543Z,18.20
2018-04-10T04:45:09.471Z,18.10
2018-04-10T04:47:37.748Z,18.10
2018-04-10T04:50:05.996Z,18.00
2018-04-10T04:52:35.107Z,18.00
2018-04-10T04:55:04.029Z,18.10
2018-04-10T04:57:33.041Z,17.80
2018-04-10T05:00:01.306Z,18.00
2018-04-10T05:02:29.576Z,17.70
2018-04-10T05:04:57.916Z,17.80
2018-04-10T05:07:26.343Z,17.70
2018-04-10T05:09:55.384Z,17.70
2018-04-10T05:12:23.724Z,17.50
2018-04-10T05:14:52.048Z,17.60
2018-04-10T05:17:20.304Z,17.70
2018-04-10T05:19:48.593Z,17.60
2018-04-10T05:22:16.922Z,17.70
2018-04-10T05:24:45.234Z,17.70
2018-04-10T05:27:13.639Z,18.00
2018-04-10T05:29:41.891Z,17.70
2018-04-10T05:32:10.169Z,17.70
2018-04-10T05:34:39.175Z,17.70
2018-04-10T05:37:07.597Z,17.70
2018-04-10T05:39:35.907Z,17.70
2018-04-10T05:42:04.128Z,17.70
2018-04-10T05:44:32.371Z,17.70
2018-04-10T05:47:01.532Z,17.90
2018-04-10T05:49:30.519Z,17.80
2018-04-10T05:51:59.771Z,17.70
2018-04-10T05:54:28.872Z,17.80
2018-04-10T05:56:58.090Z,17.80
2018-04-10T05:59:27.130Z,17.90
2018-04-10T06:01:55.550Z,18.00
2018-04-10T06:04:23.800Z,18.10
2018-04-10T06:06:52.172Z,18.10
2018-04-10T06:09:20.490Z,18.20
2018-04-10T06:11:48.732Z,18.20
2018-04-10T06:14:17.012Z,18.10
2018-04-10T06:16:45.896Z,18.50
2018-04-10T06:19:14.160Z,18.10
2018-04-10T06:21:42.876Z,18.20
2018-04-10T06:24:11.164Z,18.20
2018-04-10T06:26:39.484Z,18.40
2018-04-10T06:29:07.864Z,18.40
2018-04-10T06:31:36.964Z,18.30
2018-04-10T06:34:05.215Z,18.40
2018-04-10T06:36:33.484Z,18.50
2018-04-10T06:39:02.654Z,18.50
2018-04-10T06:41:30.926Z,18.20
2018-04-10T06:43:59.935Z,18.50
2018-04-10T06:46:28.214Z,18.40
2018-04-10T06:48:56.543Z,18.40
2018-04-10T06:51:24.845Z,18.60
2018-04-10T06:53:53.094Z,18.40
2018-04-10T06:56:21.336Z,18.60
2018-04-10T06:58:49.670Z,18.70
2018-04-10T07:01:18.849Z,18.80
2018-04-10T07:03:47.110Z,18.80
2018-04-10T07:06:15.356Z,18.80
2018-04-10T07:08:44.490Z,18.90
2018-04-10T07:11:13.488Z,18.80
2018-04-10T07:13:42.195Z,18.90
2018-04-10T07:16:10.566Z,18.80
2018-04-10T07:18:38.900Z,19.10
2018-04-10T07:21:07.144Z,19.20
2018-04-10T07:23:35.384Z,19.10
2018-04-10T07:26:04.419Z,19.00
2018-04-10T07:28:32.703Z,19.00
2018-04-10T07:31:01.078Z,19.10
2018-04-10T07:33:29.331Z,18.90
2018-04-10T07:35:58.416Z,19.00
2018-04-10T07:38:27.433Z,18.70
2018-04-10T07:40:55.709Z,18.60
2018-04-10T07:43:24.202Z,18.90
2018-04-10T07:45:52.524Z,18.90
2018-04-10T07:48:20.774Z,18.80
2018-04-10T07:50:49.037Z,19.30
2018-04-10T07:53:17.320Z,18.90
2018-04-10T07:55:46.388Z,18.90
2018-04-10T07:58:14.609Z,19.00
2018-04-10T08:00:42.914Z,19.10
2018-04-10T08:03:11.147Z,19.20
2018-04-10T08:05:40.152Z,19.40
2018-04-10T08:08:09.329Z,19.40
2018-04-10T08:10:37.725Z,19.30
2018-04-10T08:13:06.908Z,19.60
2018-04-10T08:15:35.141Z,19.50
2018-04-10T08:18:03.733Z,19.70
2018-04-10T08:20:32.980Z,19.40
2018-04-10T08:23:01.208Z,19.50
2018-04-10T08:25:29.554Z,19.20
2018-04-10T08:27:58.569Z,19.50
2018-04-10T08:30:26.855Z,19.60
2018-04-10T08:32:55.203Z,19.50
2018-04-10T08:35:23.616Z,19.60
2018-04-10T08:37:52.717Z,19.70
2018-04-10T08:40:21.985Z,19.60
2018-04-10T08:42:50.253Z,19.70
2018-04-10T08:45:18.502Z,19.50
2018-04-10T08:47:46.839Z,19.50
2018-04-10T08:50:15.234Z,19.90
2018-04-10T08:52:44.356Z,20.10
2018-04-10T08:55:12.538Z,20.00
2018-04-10T08:57:40.904Z,20.00
2018-04-10T09:00:09.904Z,20.10
2018-04-10T09:02:38.916Z,20.20
2018-04-10T09:05:07.155Z,20.00
2018-04-10T09:07:35.413Z,20.00
2018-04-10T09:10:04.413Z,20.30
2018-04-10T09:12:32.709Z,20.10
2018-04-10T09:15:00.950Z,20.10
2018-04-10T09:17:29.205Z,20.20
2018-04-10T09:19:57.460Z,20.20
2018-04-10T09:22:26.522Z,20.40
2018-04-10T09:24:54.809Z,20.40
2018-04-10T09:27:23.052Z,20.50
2018-04-10T09:29:51.295Z,20.50
2018-04-10T09:32:19.586Z,20.60
2018-04-10T09:34:48.018Z,20.70
2018-04-10T09:37:16.263Z,20.30
2018-04-10T09:39:45.288Z,20.80
2018-04-10T09:42:13.536Z,20.80
2018-04-10T09:44:42.606Z,20.80
2018-04-10T09:47:10.808Z,20.80
2018-04-10T09:49:39.839Z,20.80
2018-04-10T09:52:08.304Z,20.80
2018-04-10T09:54:36.549Z,20.60
2018-04-10T09:57:04.812Z,20.90
2018-04-10T09:59:33.119Z,20.70
2018-04-10T10:02:01.340Z,21.00
2018-04-10T10:04:32.032Z,21.00
2018-04-10T10:07:00.258Z,21.00
2018-04-10T10:09:28.586Z,21.10
2018-04-10T10:11:56.977Z,21.10
2018-04-10T10:14:25.192Z,21.10
2018-04-10T10:16:54.050Z,21.20
2018-04-10T10:19:23.042Z,21.30
2018-04-10T10:21:51.270Z,21.60
2018-04-10T10:24:19.548Z,21.60
2018-04-10T10:26:47.788Z,21.50
2018-04-10T10:29:16.806Z,21.30
2018-04-10T10:31:45.826Z,21.20
2018-04-10T10:34:14.141Z,21.20
2018-04-10T10:36:44.078Z,21.10
2018-04-10T10:39:12.446Z,21.10
2018-04-10T10:41:40.689Z,21.20
2018-04-10T10:44:11.022Z,21.20
2018-04-10T10:46:39.260Z,21.20
2018-04-10T10:49:07.489Z,21.30
2018-04-10T10:51:35.748Z,21.30
2018-04-10T10:54:03.984Z,21.30
2018-04-10T10:56:32.231Z,21.30
2018-04-10T10:59:00.473Z,21.20
2018-04-10T11:01:29.712Z,21.20
2018-04-10T11:03:57.959Z,21.20
2018-04-10T11:06:27.094Z,21.30
2018-04-10T11:08:56.259Z,21.30
2018-04-10T11:11:24.612Z,21.30
2018-04-10T11:13:52.915Z,21.20
2018-04-10T11:16:22.743Z,21.30
2018-04-10T11:18:51.761Z,21.40
2018-04-10T11:21:20.289Z,21.50
2018-04-10T11:23:48.674Z,21.50
2018-04-10T11:26:16.980Z,21.50
2018-04-10T11:28:45.236Z,21.40
2018-04-10T11:31:13.467Z,21.60
2018-04-10T11:33:41.728Z,21.70
2018-04-10T11:36:09.999Z,21.90
2018-04-10T11:38:39.207Z,22.10
2018-04-10T11:41:08.324Z,22.40
2018-04-10T11:43:37.581Z,22.40
2018-04-10T11:46:05.825Z,22.50
2018-04-10T11:48:34.142Z,22.30
2018-04-10T11:51:02.408Z,22.00
2018-04-10T11:53:30.661Z,21.80
2018-04-10T11:55:58.947Z,21.70
2018-04-10T11:58:27.276Z,21.70
2018-04-10T12:00:55.515Z,21.70
2018-04-10T12:03:23.797Z,21.80
2018-04-10T12:05:52.111Z,22.00
2018-04-10T12:08:20.385Z,22.20
2018-04-10T12:10:48.635Z,22.10
2018-04-10T12:13:16.879Z,22.10
2018-04-10T12:15:45.886Z,21.90
2018-04-10T12:18:14.124Z,21.90
2018-04-10T12:20:45.366Z,22.10
2018-04-10T12:23:13.617Z,22.10
2018-04-10T12:25:41.883Z,22.10
2018-04-10T12:28:12.711Z,22.10
2018-04-10T12:30:41.472Z,22.10
2018-04-10T12:33:10.688Z,22.20
2018-04-10T12:35:39.051Z,22.20
2018-04-10T12:38:08.804Z,22.10
2018-04-10T12:40:37.295Z,22.10
2018-04-10T12:43:05.815Z,22.20
2018-04-10T12:45:34.993Z,22.10
2018-04-10T12:48:03.273Z,22.10
2018-04-10T12:50:31.556Z,22.10
2018-04-10T12:53:01.427Z,22.10
2018-04-10T12:55:29.696Z,22.10
2018-04-10T12:57:58.093Z,22.20
2018-04-10T13:00:26.461Z,22.40
2018-04-10T13:02:54.699Z,22.70
2018-04-10T13:05:22.944Z,22.70
2018-04-10T13:07:51.970Z,22.50
2018-04-10T13:10:20.236Z,22.50
2018-04-10T13:12:49.401Z,22.40
2018-04-10T13:15:17.667Z,22.30
2018-04-10T13:17:46.825Z,22.30
2018-04-10T13:20:15.084Z,22.40
2018-04-10T13:22:44.977Z,22.50
2018-04-10T13:25:13.359Z,22.50
2018-04-10T13:27:42.056Z,22.50
2018-04-10T13:30:10.330Z,22.70
2018-04-10T13:32:38.593Z,22.70
2018-04-10T13:35:06.966Z,22.80
2018-04-10T13:37:35.212Z,22.70
2018-04-10T13:40:03.490Z,22.60
2018-04-10T13:42:31.737Z,22.70
2018-04-10T13:45:00.329Z,22.80
2018-04-10T13:47:28.533Z,22.90
2018-04-10T13:49:57.599Z,23.20
2018-04-10T13:52:25.848Z,23.20
2018-04-10T13:54:54.089Z,23.30
2018-04-10T13:57:23.112Z,23.40
2018-04-10T13:59:51.364Z,23.40
2018-04-10T14:02:20.412Z,23.30
2018-04-10T14:04:48.662Z,23.30
2018-04-10T14:07:17.540Z,23.10
2018-04-10T14:09:45.824Z,23.00
2018-04-10T14:12:14.056Z,22.80
2018-04-10T14:14:43.189Z,23.00
2018-04-10T14:17:12.267Z,23.10
2018-04-10T14:19:40.511Z,23.10
2018-04-10T14:22:08.936Z,23.10
2018-04-10T14:24:37.384Z,23.10
2018-04-10T14:27:05.646Z,23.00
2018-04-10T14:29:33.890Z,22.90
2018-04-10T14:32:02.953Z,22.80
2018-04-10T14:34:31.200Z,22.80
2018-04-10T14:36:59.461Z,22.70
2018-04-10T14:39:27.720Z,22.70
2018-04-10T14:41:55.978Z,22.80
2018-04-10T14:44:25.098Z,22.90
2018-04-10T14:46:53.328Z,22.90
2018-04-10T14:49:21.946Z,22.90
2018-04-10T14:51:51.245Z,23.00
2018-04-10T14:54:21.557Z,23.00
2018-04-10T14:56:49.819Z,22.90
2018-04-10T14:59:18.071Z,22.80
2018-04-10T15:01:47.120Z,22.90
2018-04-10T15:04:15.385Z,22.90
2018-04-10T15:06:44.484Z,22.80
2018-04-10T15:09:12.750Z,22.80
2018-04-10T15:11:41.050Z,22.80
2018-04-10T15:14:09.350Z,22.80
2018-04-10T15:16:38.448Z,22.80
2018-04-10T15:19:06.709Z,22.80
2018-04-10T15:21:34.999Z,22.90
2018-04-10T15:24:03.767Z,23.00
2018-04-10T15:26:32.085Z,23.10
2018-04-10T15:29:00.542Z,23.20
2018-04-10T15:31:28.793Z,23.30
2018-04-10T15:33:57.847Z,23.30
2018-04-10T15:36:26.112Z,23.20
2018-04-10T15:38:54.420Z,23.30
2018-04-10T15:41:22.685Z,23.20
2018-04-10T15:43:50.968Z,23.20
2018-04-10T15:46:19.269Z,23.20
2018-04-10T15:48:47.490Z,23.20
2018-04-10T15:51:16.004Z,23.20
2018-04-10T15:53:45.080Z,23.20
2018-04-10T15:56:13.339Z,23.20
2018-04-10T15:58:42.376Z,23.30
2018-04-10T16:01:10.650Z,23.30
2018-04-10T16:03:38.899Z,23.40
2018-04-10T16:06:08.148Z,23.40
2018-04-10T16:08:36.441Z,23.30
2018-04-10T16:11:04.699Z,23.40
2018-04-10T16:13:32.978Z,23.40
2018-04-10T16:16:01.244Z,23.40
2018-04-10T16:18:29.507Z,23.40
2018-04-10T16:20:59.352Z,23.30
2018-04-10T16:23:27.605Z,23.30
2018-04-10T16:25:56.781Z,23.40
2018-04-10T16:28:26.575Z,23.30
2018-04-10T16:30:54.830Z,23.30
2018-04-10T16:33:23.094Z,23.30
2018-04-10T16:35:51.342Z,23.30
2018-04-10T16:40:54.252Z,23.40
2018-04-10T16:43:22.508Z,23.50
2018-04-10T16:45:50.781Z,23.50
2018-04-10T16:48:19.188Z,23.50
2018-04-10T16:50:47.444Z,23.40
2018-04-10T16:53:15.746Z,23.40
2018-04-10T16:55:44.037Z,23.40
2018-04-10T16:58:13.094Z,23.40
2018-04-10T17:00:41.343Z,23.40
2018-04-10T17:03:09.632Z,23.40
2018-04-10T17:05:37.920Z,23.30
2018-04-10T17:08:06.290Z,23.40
2018-04-10T17:10:34.709Z,23.30
2018-04-10T17:13:02.990Z,23.20
2018-04-10T17:15:31.303Z,23.20
2018-04-10T17:17:59.842Z,23.20
2018-04-10T17:20:28.135Z,23.20
2018-04-10T17:22:56.431Z,23.10
2018-04-10T17:25:25.093Z,23.00
2018-04-10T17:27:53.385Z,23.00
2018-04-10T17:30:21.778Z,23.00
2018-04-10T17:32:50.068Z,22.90
2018-04-10T17:35:18.465Z,22.90
2018-04-10T17:37:46.736Z,22.80
2018-04-10T17:40:15.037Z,22.80
2018-04-10T17:42:43.287Z,22.80
2018-04-10T17:45:11.568Z,22.70
2018-04-10T17:47:40.769Z,22.70
2018-04-10T17:50:10.015Z,22.70
2018-04-10T17:52:38.241Z,22.60
2018-04-10T17:55:06.844Z,22.60
2018-04-10T17:57:35.127Z,22.60
2018-04-10T18:00:03.396Z,22.60
2018-04-10T18:02:31.670Z,22.60
2018-04-10T18:04:59.932Z,22.60
2018-04-10T18:07:28.220Z,22.60
2018-04-10T18:09:56.463Z,22.50
2018-04-10T18:12:25.496Z,22.40
2018-04-10T18:14:53.868Z,22.40
2018-04-10T18:17:22.115Z,22.40
2018-04-10T18:19:50.502Z,22.30
2018-04-10T18:22:18.742Z,22.30
2018-04-10T18:24:47.045Z,22.20
2018-04-10T18:27:15.303Z,22.20
2018-04-10T18:29:43.610Z,22.10
2018-04-10T18:32:11.940Z,22.10
2018-04-10T18:34:40.183Z,22.10
2018-04-10T18:37:09.371Z,22.00
2018-04-10T18:39:37.624Z,22.00
2018-04-10T18:42:05.887Z,21.90
2018-04-10T18:44:34.208Z,22.00
2018-04-10T18:47:02.596Z,22.00
2018-04-10T18:49:30.859Z,22.20
2018-04-10T18:51:59.136Z,22.20
2018-04-10T18:54:27.458Z,22.30
2018-04-10T18:56:55.719Z,22.20
2018-04-10T18:59:24.027Z,22.20
2018-04-10T19:01:52.334Z,22.20
2018-04-10T19:04:20.673Z,22.20
2018-04-10T19:06:50.480Z,22.30
2018-04-10T19:09:19.596Z,22.30
2018-04-10T19:11:47.863Z,22.30
2018-04-10T19:14:16.132Z,22.30
2018-04-10T19:16:44.383Z,22.30
2018-04-10T19:19:12.708Z,22.20
2018-04-10T19:21:41.257Z,22.00
2018-04-10T19:24:09.527Z,21.70
2018-04-10T19:26:38.566Z,21.50
2018-04-10T19:29:07.118Z,21.20
2018-04-10T19:31:35.361Z,21.10
2018-04-10T19:34:04.378Z,20.70
2018-04-10T19:36:33.791Z,20.70
2018-04-10T19:39:02.121Z,20.60
2018-04-10T19:41:31.885Z,20.30
2018-04-10T19:44:00.206Z,20.30
2018-04-10T19:46:28.601Z,20.10
2018-04-10T19:48:56.878Z,20.20
2018-04-10T19:51:25.141Z,20.00
2018-04-10T19:53:53.458Z,19.90
2018-04-10T19:56:21.735Z,19.90
2018-04-10T19:58:50.795Z,19.80
2018-04-10T20:01:19.086Z,19.90
2018-04-10T20:03:47.492Z,19.80
2018-04-10T20:06:20.625Z,19.50
2018-04-10T20:08:50.559Z,19.70
2018-04-10T20:11:19.591Z,19.70
2018-04-10T20:13:47.826Z,19.80
2018-04-10T20:16:16.189Z,19.40
2018-04-10T20:18:45.284Z,19.60
2018-04-10T20:21:14.367Z,19.30
2018-04-10T20:23:42.736Z,19.80
2018-04-10T20:26:11.024Z,19.70
2018-04-10T20:28:40.065Z,20.10
2018-04-10T20:31:08.423Z,20.00
2018-04-10T20:33:37.493Z,20.00
2018-04-10T20:36:05.753Z,20.10
2018-04-10T20:38:34.023Z,19.90
2018-04-10T20:41:02.292Z,20.20
2018-04-10T20:43:30.565Z,19.90
2018-04-10T20:45:58.828Z,19.80
2018-04-10T20:48:28.355Z,19.60
2018-04-10T20:50:56.640Z,19.50
2018-04-10T20:53:25.971Z,19.40
2018-04-10T20:55:54.220Z,19.70
2018-04-10T20:58:22.498Z,19.10
2018-04-10T21:00:50.760Z,19.40
2018-04-10T21:03:19.797Z,19.50
2018-04-10T21:05:48.859Z,19.20
2018-04-10T21:08:17.901Z,19.00
2018-04-10T21:10:46.215Z,19.10
2018-04-10T21:13:14.454Z,19.10
2018-04-10T21:15:42.715Z,19.20
2018-04-10T21:18:10.969Z,19.60
2018-04-10T21:20:40.018Z,18.90
2018-04-10T21:23:08.357Z,19.50
2018-04-10T21:25:37.528Z,19.50
2018-04-10T21:28:05.763Z,19.40
2018-04-10T21:30:34.101Z,19.40
2018-04-10T21:33:02.343Z,19.50
2018-04-10T21:35:30.654Z,19.30
2018-04-10T21:37:58.925Z,19.60
2018-04-10T21:40:27.188Z,19.40
2018-04-10T21:43:01.300Z,19.20
2018-04-10T21:45:29.574Z,19.40
2018-04-10T21:47:58.609Z,19.20
2018-04-10T21:50:26.879Z,19.30
2018-04-10T21:52:55.148Z,19.10
2018-04-10T21:55:23.419Z,19.10
2018-04-10T21:57:53.455Z,19.20
2018-04-10T22:00:22.035Z,19.10
2018-04-10T22:02:50.374Z,19.20
2018-04-10T22:05:18.724Z,18.90
2018-04-10T22:07:47.000Z,18.90
2018-04-10T22:10:15.273Z,19.10
2018-04-10T22:12:43.564Z,19.10
2018-04-10T22:15:11.795Z,19.30
2018-04-10T22:17:40.074Z,18.90
2018-04-10T22:20:08.381Z,18.80
2018-04-10T22:22:36.630Z,19.00
2018-04-10T22:25:04.910Z,18.90
2018-04-10T22:27:34.230Z,18.80
2018-04-10T22:30:02.520Z,18.90
2018-04-10T22:32:30.925Z,18.70
2018-04-10T22:34:59.284Z,18.50
2018-04-10T22:37:27.534Z,18.30
2018-04-10T22:39:55.821Z,18.40
2018-04-10T22:42:25.112Z,18.50
2018-04-10T22:44:54.267Z,18.70
2018-04-10T22:47:22.545Z,18.70
2018-04-10T22:49:51.604Z,18.60
2018-04-10T22:52:20.676Z,18.40
2018-04-10T22:54:48.931Z,18.50
2018-04-10T22:57:18.017Z,18.60
2018-04-10T22:59:47.261Z,18.70
2018-04-10T23:02:15.612Z,18.90
2018-04-10T23:04:44.662Z,18.70
2018-04-10T23:07:12.928Z,18.70
2018-04-10T23:09:41.216Z,18.50
2018-04-10T23:12:09.469Z,18.40
2018-04-10T23:14:38.640Z,18.70
2018-04-10T23:17:06.916Z,18.60
2018-04-10T23:19:35.224Z,18.50
2018-04-10T23:22:03.975Z,18.40
2018-04-10T23:24:32.302Z,18.30
2018-04-10T23:27:00.558Z,18.40
2018-04-10T23:29:28.887Z,18.20
2018-04-10T23:31:57.935Z,18.40
2018-04-10T23:34:27.271Z,18.40
2018-04-10T23:36:55.492Z,18.40
2018-04-10T23:39:23.773Z,18.30
2018-04-10T23:41:52.071Z,18.20
2018-04-10T23:44:21.228Z,18.30
2018-04-10T23:46:49.482Z,18.40
2018-04-10T23:49:18.699Z,18.20
2018-04-10T23:51:46.909Z,18.20
2018-04-10T23:54:15.220Z,17.70
2018-04-10T23:56:43.472Z,17.80
2018-04-10T23:59:11.718Z,17.80
